Time;durP1;ratioP1;P1;durP2;ratioP2;P2;SDS_P1;SDS_P2;PMS_P1;PMS_P2;Temp;Humidity;BMP_temperature;BMP_pressure;BME280_temperature;BME280_humidity;BME280_pressure;Samples;Min_cycle;Max_cycle;Signal;HPM_P1;HPM_P2
2021/11/21 00:01:11;;;;;;;47.42;21.33;;;;;;;6.38;100.00;99075.41;5033043;28;20128;-66
2021/11/21 00:03:55;;;;;;;46.35;21.27;;;;;;;6.49;100.00;99067.78;5031900;28;20096;-66
2021/11/21 00:06:39;;;;;;;;;;;;;;;6.61;100.00;99069.50;5033771;28;20095;-66
2021/11/21 00:09:23;;;;;;;48.27;20.73;;;;;;;6.69;100.00;99063.78;5018157;28;19920;-65
2021/11/21 00:12:07;;;;;;;52.63;22.85;;;;;;;6.75;100.00;99063.34;5032086;28;20045;-66
2021/11/21 00:14:51;;;;;;;46.15;20.63;;;;;;;6.61;100.00;99059.19;5033079;28;20516;-66
2021/11/21 00:17:35;;;;;;;45.28;21.98;;;;;;;6.80;100.00;99061.25;5031868;28;20057;-66
2021/11/21 00:20:19;;;;;;;50.97;22.50;;;;;;;6.79;100.00;99065.56;5033087;28;20460;-66
2021/11/21 00:23:03;;;;;;;43.55;20.92;;;;;;;6.80;100.00;99056.94;5018036;28;20052;-63
2021/11/21 00:25:48;;;;;;;43.75;21.33;;;;;;;6.82;100.00;99044.78;5031977;28;20044;-63
2021/11/21 00:28:32;;;;;;;43.50;21.05;;;;;;;6.79;100.00;99044.19;5031680;28;20045;-64
2021/11/21 00:31:17;;;;;;;40.95;19.10;;;;;;;6.46;100.00;99050.00;5032160;28;20103;-66
2021/11/21 00:34:01;;;;;;;42.40;21.38;;;;;;;6.48;100.00;99034.47;5031623;28;20139;-65
2021/11/21 00:36:45;;;;;;;39.28;20.15;;;;;;;6.33;100.00;99026.09;5031829;28;20048;-63
2021/11/21 00:39:29;;;;;;;48.53;22.83;;;;;;;6.53;100.00;99029.78;5036540;28;20048;-63
2021/11/21 00:42:15;;;;;;;46.75;22.63;;;;;;;6.54;100.00;99032.28;5036393;28;20052;-64
2021/11/21 00:45:00;;;;;;;47.15;22.65;;;;;;;6.52;100.00;99031.56;5035323;28;20541;-63
2021/11/21 00:47:44;;;;;;;41.40;19.85;;;;;;;6.36;100.00;99025.88;5035414;28;20040;-63
2021/11/21 00:50:30;;;;;;;48.83;24.35;;;;;;;6.57;100.00;99010.66;5035570;28;20478;-63
2021/11/21 00:53:14;;;;;;;50.70;22.08;;;;;;;6.41;100.00;99012.69;5021281;28;20049;-64
2021/11/21 00:56:09;;;;;;;47.10;22.27;;;;;;;6.49;100.00;99016.38;5034873;28;20109;-64
2021/11/21 00:58:53;;;;;;;51.13;23.98;;;;;;;6.55;100.00;99005.63;5035292;28;20103;-64
2021/11/21 01:01:38;;;;;;;39.30;16.42;;;;;;;6.37;100.00;99012.06;5021338;28;20103;-64
2021/11/21 01:04:22;;;;;;;46.65;23.52;;;;;;;6.51;100.00;98996.50;5035054;28;20416;-64
2021/11/21 01:07:06;;;;;;;44.05;22.23;;;;;;;6.30;100.00;99008.31;5035118;28;20123;-63
2021/11/21 01:09:50;;;;;;;48.90;23.77;;;;;;;6.50;100.00;99000.00;5035672;28;20055;-64
2021/11/21 01:12:34;;;;;;;44.85;23.23;;;;;;;6.47;100.00;99012.25;5036083;28;20411;-63
2021/11/21 01:15:20;;;;;;;45.45;23.67;;;;;;;6.29;100.00;99009.25;5034543;28;20076;-63
2021/11/21 01:18:07;;;;;;;47.17;23.42;;;;;;;6.40;100.00;99011.88;5035595;28;20051;-66
2021/11/21 01:20:51;;;;;;;46.05;23.42;;;;;;;6.38;100.00;99018.84;5034386;28;20052;-64
2021/11/21 01:23:35;;;;;;;45.80;24.02;;;;;;;6.34;100.00;99016.63;5034734;28;20051;-63
2021/11/21 01:26:20;;;;;;;49.17;23.58;;;;;;;6.34;100.00;99022.59;5035340;28;20079;-63
2021/11/21 01:29:04;;;;;;;46.47;23.40;;;;;;;6.36;100.00;99012.19;5034634;28;20068;-63
2021/11/21 01:31:48;;;;;;;38.45;21.13;;;;;;;6.17;100.00;99020.38;5035386;28;20048;-63
2021/11/21 01:34:31;;;;;;;41.13;21.85;;;;;;;6.34;100.00;99012.31;5020453;28;20098;-63
2021/11/21 01:37:15;;;;;;;;;;;;;;;6.22;100.00;99012.34;5035538;28;20055;-63
2021/11/21 01:40:00;;;;;;;39.67;21.53;;;;;;;6.23;100.00;99008.84;5034227;28;20302;-63
2021/11/21 01:42:44;;;;;;;41.42;22.40;;;;;;;6.28;100.00;99005.00;5034095;28;20131;-63
2021/11/21 01:45:30;;;;;;;40.22;21.65;;;;;;;6.20;100.00;99007.34;5034101;28;20052;-63
2021/11/21 01:48:14;;;;;;;38.13;20.33;;;;;;;6.13;100.00;99003.53;5019768;28;20545;-63
2021/11/21 01:51:01;;;;;;;37.35;21.15;;;;;;;6.32;100.00;98998.75;5019735;28;20446;-64
2021/11/21 01:53:45;;;;;;;43.80;22.98;;;;;;;6.27;100.00;99000.00;5035731;28;20570;-63
2021/11/21 01:56:29;;;;;;;43.03;21.60;;;;;;;6.36;100.00;98996.78;5034185;28;20051;-63
2021/11/21 01:59:14;;;;;;;38.45;22.25;;;;;;;6.37;100.00;98986.38;5035015;28;20053;-64
2021/11/21 02:01:57;;;;;;;38.42;20.98;;;;;;;6.39;100.00;98981.97;5033762;28;20514;-64
2021/11/21 02:04:41;;;;;;;38.00;21.70;;;;;;;6.42;100.00;98979.16;5034911;28;20410;-63
2021/11/21 02:07:28;;;;;;;36.08;20.92;;;;;;;6.25;100.00;98981.31;5034243;28;20075;-63
2021/11/21 02:10:17;;;;;;;37.40;20.38;;;;;;;6.28;100.00;98970.78;5033846;28;20461;-64
2021/11/21 02:13:03;;;;;;;39.45;21.00;;;;;;;6.23;100.00;98978.00;5033480;28;20048;-64
2021/11/21 02:15:47;;;;;;;35.95;19.45;;;;;;;6.11;100.00;98974.56;5033382;28;20043;-65
2021/11/21 02:18:31;;;;;;;39.80;21.23;;;;;;;6.25;100.00;98976.97;5033965;28;20113;-66
2021/11/21 02:21:16;;;;;;;34.08;19.05;;;;;;;6.36;100.00;98974.44;5033503;28;20096;-63
2021/11/21 02:24:02;;;;;;;36.90;19.67;;;;;;;6.37;100.00;98965.00;5033562;28;20055;-66
2021/11/21 02:26:46;;;;;;;34.53;19.25;;;;;;;6.46;100.00;98952.28;5033455;28;20103;-66
2021/11/21 02:29:30;;;;;;;35.65;20.48;;;;;;;6.26;100.00;98947.75;5033567;28;20234;-66
2021/11/21 02:32:13;;;;;;;35.47;20.50;;;;;;;6.35;100.00;98941.97;5019198;28;20110;-63
2021/11/21 02:34:58;;;;;;;34.70;19.05;;;;;;;6.26;100.00;98941.81;5034337;28;20047;-63
2021/11/21 02:37:42;;;;;;;33.88;18.45;;;;;;;6.14;100.00;98937.56;5033140;28;20087;-63
2021/11/21 02:40:26;;;;;;;35.53;19.33;;;;;;;6.31;100.00;98920.00;5033347;28;20056;-63
2021/11/21 02:43:10;;;;;;;32.90;16.67;;;;;;;6.15;100.00;98916.88;5019326;28;20068;-66
2021/11/21 02:45:56;;;;;;;27.52;15.73;;;;;;;6.36;100.00;98912.75;5033077;28;20052;-66
2021/11/21 02:48:40;;;;;;;33.38;17.77;;;;;;;6.40;100.00;98911.59;5033030;28;20414;-63
2021/11/21 02:51:24;;;;;;;30.48;16.67;;;;;;;6.29;100.00;98911.56;5033899;28;20537;-64
2021/11/21 02:54:08;;;;;;;27.90;15.70;;;;;;;6.30;100.00;98905.50;5032979;28;20088;-63
2021/11/21 02:56:52;;;;;;;31.02;15.82;;;;;;;6.28;100.00;98898.81;5033897;28;20115;-64
2021/11/21 02:59:36;;;;;;;26.50;15.48;;;;;;;6.23;100.00;98906.03;5033753;28;20134;-63
2021/11/21 03:02:21;;;;;;;28.83;16.05;;;;;;;6.34;100.00;98906.09;5033047;28;20084;-63
2021/11/21 03:05:06;;;;;;;30.52;15.57;;;;;;;6.29;100.00;98892.75;5032869;28;20494;-63
2021/11/21 03:07:50;;;;;;;25.95;15.00;;;;;;;6.19;100.00;98895.19;5032501;28;20423;-66
2021/11/21 03:10:35;;;;;;;28.13;15.57;;;;;;;6.15;100.00;98888.59;5032706;28;20047;-66
2021/11/21 03:13:19;;;;;;;31.52;16.08;;;;;;;6.21;100.00;98890.75;5032411;28;20414;-66
2021/11/21 03:16:03;;;;;;;27.55;15.43;;;;;;;6.27;100.00;98890.28;5032599;28;20053;-66
2021/11/21 03:18:47;;;;;;;27.80;15.93;;;;;;;6.29;100.00;98880.72;5032659;28;20130;-64
2021/11/21 03:21:31;;;;;;;27.02;14.43;;;;;;;6.13;100.00;98884.50;5032526;28;20110;-64
2021/11/21 03:24:15;;;;;;;;;;;;;;;6.04;100.00;98878.28;5019089;28;20083;-63
2021/11/21 03:26:59;;;;;;;24.98;13.57;;;;;;;6.07;100.00;98880.63;5033580;28;19963;-66
2021/11/21 03:29:43;;;;;;;26.08;13.60;;;;;;;5.96;100.00;98880.56;5032558;28;20572;-66
2021/11/21 03:32:27;;;;;;;27.98;14.13;;;;;;;6.04;100.00;98873.16;5032493;28;20095;-66
2021/11/21 03:35:12;;;;;;;25.55;14.32;;;;;;;6.02;100.00;98869.88;5018549;28;20048;-66
2021/11/21 03:37:55;;;;;;;26.45;14.70;;;;;;;6.02;100.00;98866.47;5018230;28;20048;-65
2021/11/21 03:40:39;;;;;;;27.30;13.80;;;;;;;5.98;100.00;98867.63;5032340;28;20422;-66
2021/11/21 03:43:23;;;;;;;26.20;11.25;;;;;;;5.97;100.00;98859.09;5032384;28;20043;-65
2021/11/21 03:46:07;;;;;;;23.13;11.35;;;;;;;5.84;100.00;98858.34;5032370;28;20074;-66
2021/11/21 03:48:51;;;;;;;27.35;14.02;;;;;;;5.82;100.00;98849.94;5032070;28;20621;-65
2021/11/21 03:51:35;;;;;;;27.40;14.02;;;;;;;5.91;100.00;98848.44;5032043;28;20160;-66
2021/11/21 03:54:19;;;;;;;30.48;15.07;;;;;;;5.93;100.00;98844.03;5033263;28;20154;-65
2021/11/21 03:57:04;;;;;;;28.45;15.68;;;;;;;5.96;100.00;98842.03;5033172;28;20048;-65
2021/11/21 03:59:48;;;;;;;27.92;14.73;;;;;;;5.92;100.00;98843.19;5032236;28;20049;-66
2021/11/21 04:02:32;;;;;;;30.67;14.98;;;;;;;5.98;100.00;98840.19;5018203;28;20099;-66
2021/11/21 04:05:17;;;;;;;28.38;13.93;;;;;;;5.87;100.00;98850.41;5031971;28;20119;-65
2021/11/21 04:08:02;;;;;;;26.70;13.52;;;;;;;6.05;100.00;98841.38;5032141;28;20064;-65
2021/11/21 04:10:46;;;;;;;26.52;13.68;;;;;;;6.00;100.00;98843.47;5031824;28;20464;-66
2021/11/21 04:13:30;;;;;;;28.85;12.40;;;;;;;5.94;100.00;98840.53;5021330;28;20056;-65
2021/11/21 04:16:14;;;;;;;25.30;13.02;;;;;;;6.03;100.00;98838.09;5021672;28;20049;-66
2021/11/21 04:18:58;;;;;;;24.30;12.40;;;;;;;6.06;100.00;98831.94;5036229;28;20057;-66
2021/11/21 04:21:42;;;;;;;23.83;12.20;;;;;;;5.97;100.00;98835.16;5036816;28;20524;-66
2021/11/21 04:24:26;;;;;;;24.60;12.20;;;;;;;6.06;100.00;98832.72;5035662;28;20052;-66
2021/11/21 04:27:11;;;;;;;29.00;13.05;;;;;;;5.99;100.00;98826.41;5036503;28;20442;-66
2021/11/21 04:29:56;;;;;;;24.52;12.35;;;;;;;6.10;100.00;98826.47;5037002;28;20410;-66
2021/11/21 04:32:42;;;;;;;22.83;10.77;;;;;;;6.03;100.00;98822.69;5021317;28;20464;-65
2021/11/21 04:35:26;;;;;;;22.83;12.63;;;;;;;6.10;100.00;98818.75;5021569;28;20125;-65
2021/11/21 04:38:10;;;;;;;21.52;11.32;;;;;;;6.32;100.00;98816.22;5035579;28;20122;-66
2021/11/21 04:40:54;;;;;;;;;;;;;;;6.24;100.00;98808.25;5036049;28;20553;-66
2021/11/21 04:43:38;;;;;;;23.02;11.57;;;;;;;6.21;100.00;98797.38;5036459;28;19920;-65
2021/11/21 04:46:22;;;;;;;;;;;;;;;6.24;100.00;98795.41;5035542;28;20116;-65
2021/11/21 04:49:06;;;;;;;22.70;11.47;;;;;;;6.07;100.00;98800.97;5035144;28;20415;-65
2021/11/21 04:51:49;;;;;;;23.92;12.07;;;;;;;6.05;100.00;98800.25;5034779;28;20068;-66
2021/11/21 04:54:34;;;;;;;21.25;11.52;;;;;;;6.08;100.00;98797.50;5035245;28;20505;-65
2021/11/21 04:57:19;;;;;;;23.58;12.48;;;;;;;6.26;100.00;98782.44;5035117;28;20076;-63
2021/11/21 05:00:04;;;;;;;22.70;11.88;;;;;;;6.19;100.00;98782.09;5035167;28;20060;-63
2021/11/21 05:02:49;;;;;;;24.92;12.90;;;;;;;6.30;100.00;98779.53;5036342;28;20048;-65
2021/11/21 05:05:33;;;;;;;22.50;12.48;;;;;;;6.33;100.00;98773.31;5034801;28;20048;-66
2021/11/21 05:08:17;;;;;;;20.27;11.73;;;;;;;6.12;100.00;98780.06;5035739;28;20053;-66
2021/11/21 05:11:01;;;;;;;;;;;;;;;6.11;100.00;98779.25;5035320;28;20049;-65
2021/11/21 05:13:45;;;;;;;23.25;11.45;;;;;;;6.08;100.00;98782.06;5036160;28;20282;-66
2021/11/21 05:16:29;;;;;;;19.05;10.45;;;;;;;6.01;100.00;98783.44;5034892;28;20049;-66
2021/11/21 05:19:13;;;;;;;16.40;8.82;;;;;;;6.06;100.00;98776.19;5035556;28;20121;-65
2021/11/21 05:21:57;;;;;;;22.42;13.30;;;;;;;6.16;100.00;98772.03;5034591;28;20140;-66
2021/11/21 05:24:41;;;;;;;20.92;12.32;;;;;;;6.10;100.00;98777.63;5035584;28;20430;-66
2021/11/21 05:27:25;;;;;;;18.63;9.77;;;;;;;5.97;100.00;98787.16;5034696;28;20461;-66
2021/11/21 05:30:10;;;;;;;23.63;12.23;;;;;;;6.07;100.00;98777.84;5034621;28;20422;-65
2021/11/21 05:32:54;;;;;;;22.70;10.80;;;;;;;5.95;100.00;98773.59;5034188;28;20121;-66
2021/11/21 05:35:38;;;;;;;17.70;8.63;;;;;;;6.06;100.00;98785.69;5034703;28;20098;-66
2021/11/21 05:38:22;;;;;;;22.00;11.57;;;;;;;6.23;100.00;98778.34;5034224;28;20175;-66
2021/11/21 05:41:06;;;;;;;22.77;12.25;;;;;;;6.18;100.00;98779.63;5034170;28;20107;-63
2021/11/21 05:43:50;;;;;;;28.48;13.15;;;;;;;6.01;100.00;98777.47;5034377;28;20052;-65
2021/11/21 05:46:34;;;;;;;26.85;12.52;;;;;;;6.04;100.00;98783.22;5034579;28;20052;-65
2021/11/21 05:49:18;;;;;;;24.60;12.10;;;;;;;6.08;100.00;98784.63;5034060;28;20047;-66
2021/11/21 05:52:03;;;;;;;23.23;12.57;;;;;;;6.08;100.00;98779.50;5019779;28;20052;-66
2021/11/21 05:54:47;;;;;;;24.42;13.35;;;;;;;6.17;100.00;98775.41;5034930;28;20417;-65
2021/11/21 05:57:31;;;;;;;20.38;11.88;;;;;;;6.27;100.00;98774.59;5034869;28;20465;-66
2021/11/21 06:00:21;;;;;;;22.42;12.20;;;;;;;6.33;100.00;98776.72;5020090;28;20048;-63
2021/11/21 06:03:04;;;;;;;23.33;11.82;;;;;;;6.21;100.00;98785.38;5034782;28;20052;-66
2021/11/21 06:05:48;;;;;;;22.65;11.90;;;;;;;6.34;100.00;98780.94;5034677;28;20092;-63
2021/11/21 06:08:33;;;;;;;25.50;11.98;;;;;;;6.45;100.00;98796.38;5019907;28;20137;-63
2021/11/21 06:11:17;;;;;;;21.83;11.23;;;;;;;6.23;100.00;98788.63;5019681;28;20140;-63
2021/11/21 06:14:01;;;;;;;20.38;11.35;;;;;;;6.28;100.00;98796.81;5034790;28;20164;-65
2021/11/21 06:16:45;;;;;;;;;;;;;;;6.50;100.00;98794.28;5035078;28;20075;-63
2021/11/21 06:19:30;;;;;;;20.52;10.88;;;;;;;6.48;100.00;98792.75;5033861;28;20008;-63
2021/11/21 06:22:14;;;;;;;20.83;11.07;;;;;;;6.53;100.00;98786.34;5034414;28;20493;-63
2021/11/21 06:24:58;;;;;;;20.85;10.82;;;;;;;6.62;100.00;98789.97;5034295;28;20465;-63
2021/11/21 06:27:42;;;;;;;16.83;9.55;;;;;;;6.65;100.00;98795.69;5033435;28;20060;-63
2021/11/21 06:30:26;;;;;;;14.80;7.95;;;;;;;6.64;99.87;98791.47;5033721;28;20516;-63
2021/11/21 06:33:10;;;;;;;11.13;7.63;;;;;;;6.62;98.89;98785.66;5034517;28;20052;-63
2021/11/21 06:35:54;;;;;;;10.80;6.93;;;;;;;6.65;97.76;98792.31;5032511;28;20136;-63
2021/11/21 06:38:40;;;;;;;10.63;5.90;;;;;;;6.65;96.64;98795.69;5033064;28;20095;-63
2021/11/21 06:41:24;;;;;;;9.48;5.75;;;;;;;6.69;95.99;98791.94;5034121;28;20132;-63
2021/11/21 06:44:09;;;;;;;8.45;5.00;;;;;;;6.66;95.90;98807.63;5034003;28;20406;-63
2021/11/21 06:46:53;;;;;;;8.45;4.88;;;;;;;6.55;95.82;98805.03;5033158;28;20457;-63
2021/11/21 06:49:37;;;;;;;6.35;4.25;;;;;;;6.53;95.98;98806.06;5019444;28;20494;-63
2021/11/21 06:52:22;;;;;;;6.57;3.85;;;;;;;6.49;95.36;98809.81;5032757;28;20141;-62
2021/11/21 06:55:07;;;;;;;6.10;4.03;;;;;;;6.46;94.40;98810.06;5032991;28;20132;-63
2021/11/21 06:57:51;;;;;;;6.30;3.95;;;;;;;6.44;94.68;98807.59;5018947;28;20052;-63
2021/11/21 07:00:35;;;;;;;7.30;3.90;;;;;;;6.45;94.16;98804.09;5019004;28;20052;-63
2021/11/21 07:03:19;;;;;;;6.28;3.95;;;;;;;6.40;94.10;98807.94;5018911;28;20526;-63
2021/11/21 07:06:03;;;;;;;6.15;3.80;;;;;;;6.52;94.13;98801.88;5033869;28;20497;-63
2021/11/21 07:08:47;;;;;;;6.07;3.83;;;;;;;6.39;94.20;98807.13;5033873;28;20124;-63
2021/11/21 07:11:31;;;;;;;4.55;3.03;;;;;;;6.44;94.66;98812.75;5033439;28;20059;-63
2021/11/21 07:14:15;;;;;;;6.20;3.53;;;;;;;6.40;94.79;98816.47;5033970;28;20133;-62
2021/11/21 07:16:59;;;;;;;5.60;3.38;;;;;;;6.29;95.71;98815.63;5032378;28;20080;-63
2021/11/21 07:19:43;;;;;;;;;;;;;;;6.38;95.69;98813.19;5033812;28;20052;-63
2021/11/21 07:22:27;;;;;;;4.87;2.90;;;;;;;6.27;96.74;98804.66;5018427;28;20381;-63
2021/11/21 07:25:12;;;;;;;5.10;3.13;;;;;;;6.12;97.37;98811.75;5032821;28;20310;-63
2021/11/21 07:27:56;;;;;;;5.30;2.85;;;;;;;6.11;97.66;98804.13;5032626;28;20128;-62
2021/11/21 07:30:40;;;;;;;4.40;2.83;;;;;;;6.07;98.08;98811.25;5032171;28;20056;-65
2021/11/21 07:33:24;;;;;;;5.47;3.33;;;;;;;6.21;97.94;98816.22;5033249;28;20079;-61
2021/11/21 07:36:08;;;;;;;3.80;2.83;;;;;;;6.19;97.45;98818.06;5033269;28;20048;-61
2021/11/21 07:38:52;;;;;;;5.10;3.00;;;;;;;6.07;98.53;98811.25;5033372;28;20138;-63
2021/11/21 07:41:37;;;;;;;9.80;3.70;;;;;;;5.94;99.44;98813.06;5032301;28;20080;-64
2021/11/21 07:44:21;;;;;;;4.75;2.75;;;;;;;6.01;99.37;98814.28;5033349;28;20103;-63
2021/11/21 07:47:05;;;;;;;;;;;;;;;6.07;99.10;98808.66;5019418;28;20060;-63
2021/11/21 07:49:49;;;;;;;5.33;3.40;;;;;;;5.98;99.28;98799.09;5036211;28;19936;-63
2021/11/21 07:52:33;;;;;;;4.53;3.05;;;;;;;6.01;100.00;98806.56;5035370;28;20183;-63
2021/11/21 07:55:18;;;;;;;7.30;3.75;;;;;;;6.07;100.00;98807.88;5036814;28;20150;-63
2021/11/21 07:58:02;;;;;;;7.38;4.30;;;;;;;6.06;100.00;98817.31;5057489;22;20039;-66
2021/11/21 08:00:47;;;;;;;8.63;4.40;;;;;;;6.13;100.00;98805.66;5035393;28;20579;-63
2021/11/21 08:03:31;;;;;;;7.57;4.70;;;;;;;6.11;100.00;98802.41;5035569;28;20055;-64
2021/11/21 08:06:15;;;;;;;9.02;4.75;;;;;;;6.17;100.00;98798.56;5036317;28;20576;-66
2021/11/21 08:08:59;;;;;;;9.82;5.13;;;;;;;6.09;100.00;98811.97;5036346;28;20099;-64
2021/11/21 08:11:46;;;;;;;;;;;;;;;6.33;100.00;98815.28;5037269;28;20123;-64
2021/11/21 08:14:31;;;;;;;12.35;5.88;;;;;;;6.14;100.00;98809.88;5036679;28;19932;-65
2021/11/21 08:17:17;;;;;;;9.30;4.50;;;;;;;6.06;100.00;98803.66;5036457;28;20044;-62
2021/11/21 08:20:03;;;;;;;7.47;4.43;;;;;;;6.15;100.00;98798.66;5035202;28;20139;-64
2021/11/21 08:22:47;;;;;;;9.32;4.97;;;;;;;6.27;100.00;98797.75;5034946;28;20053;-63
2021/11/21 08:25:31;;;;;;;9.75;5.05;;;;;;;6.30;100.00;98791.56;5034918;28;20044;-66
2021/11/21 08:28:15;;;;;;;10.32;5.40;;;;;;;6.44;99.83;98792.16;5021150;28;20049;-66
2021/11/21 08:30:59;;;;;;;10.32;4.97;;;;;;;6.24;100.00;98792.03;5021266;28;20190;-66
2021/11/21 08:33:43;;;;;;;12.48;5.03;;;;;;;6.41;99.82;98787.25;5035758;28;20107;-65
2021/11/21 08:36:28;;;;;;;9.65;5.25;;;;;;;6.27;100.00;98794.38;5034883;28;20518;-66
2021/11/21 08:39:11;;;;;;;9.40;4.75;;;;;;;6.27;99.84;98794.38;5035772;28;20106;-66
2021/11/21 08:41:56;;;;;;;11.13;5.25;;;;;;;6.36;100.00;98793.69;5034894;28;20521;-63
2021/11/21 08:44:41;;;;;;;10.63;5.28;;;;;;;6.34;100.00;98790.41;5020844;28;20084;-65
2021/11/21 08:47:25;;;;;;;9.02;4.90;;;;;;;6.46;99.56;98794.63;5036090;28;20088;-65
2021/11/21 08:50:09;;;;;;;14.48;6.63;;;;;;;6.37;98.85;98793.56;5035629;28;20146;-66
2021/11/21 08:52:53;;;;;;;11.35;5.82;;;;;;;6.52;99.12;98789.00;5034653;28;20056;-65
2021/11/21 08:55:37;;;;;;;10.88;5.53;;;;;;;6.40;99.20;98785.63;5034365;28;20048;-65
2021/11/21 08:58:21;;;;;;;;;;;;;;;6.51;99.69;98777.09;5034386;28;20053;-64
2021/11/21 09:01:05;;;;;;;11.00;5.10;;;;;;;6.72;98.67;98778.88;5035392;28;19920;-65
2021/11/21 09:03:49;;;;;;;42.80;16.85;;;;;;;6.97;97.14;98781.19;5035487;28;20262;-65
2021/11/21 09:06:35;;;;;;;9.73;5.35;;;;;;;7.08;95.36;98788.88;5035302;28;20457;-64
2021/11/21 09:09:19;;;;;;;11.88;5.57;;;;;;;7.10;94.83;98781.06;5020144;28;20056;-62
2021/11/21 09:12:03;;;;;;;10.15;5.05;;;;;;;6.71;95.71;98779.81;5034146;28;20086;-59
2021/11/21 09:14:47;;;;;;;12.15;5.57;;;;;;;6.78;96.02;98770.66;5020542;28;20080;-66
2021/11/21 09:17:31;;;;;;;9.35;4.60;;;;;;;6.83;94.65;98771.16;5033987;28;20548;-66
2021/11/21 09:20:15;;;;;;;;;;;;;;;6.93;95.58;98769.50;5035614;28;20103;-63
2021/11/21 09:23:00;;;;;;;7.87;4.20;;;;;;;6.85;95.21;98766.69;5033900;28;19919;-66
2021/11/21 09:25:44;;;;;;;10.88;4.97;;;;;;;6.86;94.14;98770.91;5034058;28;20044;-64
2021/11/21 09:28:28;;;;;;;6.00;3.85;;;;;;;6.87;94.11;98774.31;5034748;28;20048;-64
2021/11/21 09:31:12;;;;;;;7.72;3.95;;;;;;;6.97;93.45;98770.88;5035047;28;20044;-63
2021/11/21 09:33:56;;;;;;;6.88;3.53;;;;;;;7.13;91.92;98770.50;5033940;28;20128;-59
2021/11/21 09:36:42;;;;;;;7.80;3.72;;;;;;;6.88;93.50;98781.88;5034026;28;20081;-63
2021/11/21 09:39:27;;;;;;;6.50;3.38;;;;;;;7.01;92.88;98779.19;5033475;28;20063;-63
2021/11/21 09:42:12;;;;;;;7.10;3.75;;;;;;;7.16;91.29;98785.75;5033405;28;20552;-65
2021/11/21 09:44:55;;;;;;;6.03;3.65;;;;;;;6.97;91.85;98780.38;5033476;28;20100;-66
2021/11/21 09:47:39;;;;;;;6.28;3.50;;;;;;;7.09;91.87;98777.66;5033436;28;20049;-65
2021/11/21 09:50:23;;;;;;;;;;;;;;;7.06;91.95;98777.91;5034781;28;20071;-62
2021/11/21 09:53:08;;;;;;;10.60;4.80;;;;;;;7.20;91.35;98776.81;5033311;28;20397;-68
2021/11/21 09:55:53;;;;;;;7.93;4.65;;;;;;;7.21;91.70;98769.00;5033123;28;20067;-65
2021/11/21 09:58:37;;;;;;;7.97;4.32;;;;;;;7.18;92.62;98763.25;5033234;28;20410;-66
2021/11/21 10:01:41;;;;;;;11.57;4.45;;;;;;;7.20;92.35;98762.19;5033401;28;20083;-66
2021/11/21 10:04:40;;;;;;;;;;;;;;;7.16;93.31;98768.53;5033400;28;20049;-63
2021/11/21 10:07:28;;;;;;;10.57;5.75;;;;;;;7.26;93.71;98760.88;5034185;28;19920;-61
2021/11/21 10:10:17;;;;;;;9.18;4.70;;;;;;;7.15;93.66;98756.59;5018650;28;20540;-65
2021/11/21 10:13:00;;;;;;;8.40;4.53;;;;;;;7.13;93.68;98755.91;5033120;28;20425;-66
2021/11/21 10:15:46;;;;;;;13.35;6.07;;;;;;;7.25;93.22;98748.94;5033019;28;20114;-63
2021/11/21 10:18:46;;;;;;;11.55;5.80;;;;;;;7.50;93.06;98739.16;5019649;28;20122;-65
2021/11/21 10:21:51;;;;;;;10.02;5.45;;;;;;;7.40;92.72;98727.94;5033224;28;20190;-66
2021/11/21 10:24:35;;;;;;;10.40;5.55;;;;;;;7.56;92.72;98723.22;5018800;28;20052;-67
2021/11/21 10:27:19;;;;;;;12.27;5.78;;;;;;;7.46;92.67;98727.47;5033189;28;20185;-67
2021/11/21 10:30:04;;;;;;;11.88;5.63;;;;;;;7.45;93.30;98715.53;5032428;28;20076;-66
2021/11/21 10:32:51;;;;;;;11.75;5.28;;;;;;;7.49;93.63;98714.34;5033703;28;20052;-62
2021/11/21 10:35:35;;;;;;;11.30;5.90;;;;;;;7.53;100.00;78921.25;5032450;28;20132;-66
2021/11/21 10:38:19;;;;;;;11.90;5.90;;;;;;;-139.48;100.00;61217.00;5032486;28;20044;-66
2021/11/21 10:41:21;;;;;;;13.55;6.60;;;;;;;-139.48;100.00;61217.00;5032595;28;20052;-64
2021/11/21 10:44:07;;;;;;;14.90;6.60;;;;;;;-139.48;100.00;61217.00;5033549;28;20045;-65
2021/11/21 10:46:56;;;;;;;12.10;6.50;;;;;;;-139.48;100.00;61217.00;5018441;28;20095;-65
2021/11/21 10:49:40;;;;;;;12.77;5.97;;;;;;;-139.48;100.00;61217.00;5032256;28;20107;-65
2021/11/21 10:52:24;;;;;;;8.35;4.97;;;;;;;7.44;92.82;98700.19;5032359;28;20044;-67
2021/11/21 10:55:14;;;;;;;9.23;5.35;;;;;;;7.44;92.79;98698.47;5032423;28;20115;-64
2021/11/21 10:58:11;;;;;;;9.73;5.45;;;;;;;7.57;93.33;98688.78;5031733;28;20048;-66
2021/11/21 11:00:58;;;;;;;10.82;5.28;;;;;;;7.66;90.99;98686.31;5032185;28;20130;-65
2021/11/21 11:03:42;;;;;;;10.00;5.78;;;;;;;7.63;91.51;98686.53;5032195;28;20044;-66
2021/11/21 11:06:27;;;;;;;7.90;4.30;;;;;;;7.62;90.25;98686.69;5032284;28;20140;-67
2021/11/21 11:09:21;;;;;;;6.93;3.83;;;;;;;7.55;90.07;98683.75;5032141;28;20049;-65
2021/11/21 11:12:05;;;;;;;8.88;4.25;;;;;;;7.50;90.85;98682.50;5032152;28;20466;-62
2021/11/21 11:14:50;;;;;;;8.45;4.55;;;;;;;7.62;90.75;98666.06;5032956;28;20108;-65
2021/11/21 11:17:35;;;;;;;6.57;4.03;;;;;;;7.58;90.11;98664.66;5032802;28;20084;-65
2021/11/21 11:20:15;;;;;;;7.22;4.65;;;;;;;7.75;89.62;98656.38;5024978;22;20355;-65
2021/11/21 11:22:59;;;;;;;7.18;4.30;;;;;;;7.61;89.38;98660.09;5003875;28;20060;-63
2021/11/21 11:25:46;;;;;;;7.20;4.00;;;;;;;7.55;89.92;98649.47;5032688;28;20059;-65
2021/11/21 11:28:34;;;;;;;5.97;3.35;;;;;;;7.52;89.66;98654.03;5004157;28;20564;-63
2021/11/21 11:31:32;;;;;;;8.13;4.95;;;;;;;7.69;90.14;98655.13;5003810;28;20052;-61
2021/11/21 11:34:36;;;;;;;7.22;4.18;;;;;;;7.65;89.50;98655.50;5017812;28;20055;-65
2021/11/21 11:37:47;;;;;;;6.43;3.55;;;;;;;7.75;88.94;98656.38;5032504;28;20083;-66
2021/11/21 11:40:50;;;;;;;7.07;4.28;;;;;;;7.88;87.97;98641.53;5017599;28;20083;-66
2021/11/21 11:43:37;;;;;;;5.85;3.85;;;;;;;7.98;86.85;98639.81;5004275;28;20445;-66
2021/11/21 11:46:28;;;;;;;7.30;4.65;;;;;;;7.93;87.14;98649.72;5017617;28;20130;-66
2021/11/21 11:49:15;;;;;;;6.03;4.07;;;;;;;7.94;87.01;98638.44;5032373;28;20632;-64
2021/11/21 11:51:59;;;;;;;6.65;4.03;;;;;;;8.12;100.00;98639.47;5018496;28;20071;-61
2021/11/21 11:55:09;;;;;;;6.68;4.25;;;;;;;8.33;84.60;98632.53;5017607;28;20049;-62
2021/11/21 11:57:57;;;;;;;6.60;4.20;;;;;;;8.38;84.04;98640.72;5017338;28;20454;-67
2021/11/21 12:00:47;;;;;;;9.10;4.55;;;;;;;8.34;84.35;98626.44;5032810;28;20076;-60
2021/11/21 12:03:41;;;;;;;7.25;4.35;;;;;;;8.46;83.39;98630.56;5032411;28;20190;-65
2021/11/21 12:06:48;;;;;;;6.47;3.80;;;;;;;8.28;84.42;98624.38;5032333;28;20045;-65
2021/11/21 12:09:37;;;;;;;6.20;4.20;;;;;;;8.12;85.64;98618.84;5017566;28;20048;-65
2021/11/21 12:12:21;;;;;;;8.55;3.95;;;;;;;8.02;85.47;98623.13;5003871;28;20088;-66
2021/11/21 12:15:25;;;;;;;5.93;3.67;;;;;;;8.23;85.70;98621.38;5017534;28;20572;-65
2021/11/21 12:18:10;;;;;;;6.93;4.00;;;;;;;8.16;86.09;98621.03;5032117;28;20044;-65
2021/11/21 12:20:58;;;;;;;5.75;4.28;;;;;;;8.31;85.08;98621.53;5017247;28;20056;-67
2021/11/21 12:23:42;;;;;;;5.85;3.58;;;;;;;8.06;85.38;98614.22;5017400;28;20092;-65
2021/11/21 12:26:33;;;;;;;6.47;3.30;;;;;;;8.04;85.07;98623.84;5032367;28;20095;-67
2021/11/21 12:29:18;;;;;;;5.53;3.72;;;;;;;8.15;85.25;98618.59;5032005;28;20103;-67
2021/11/21 12:32:26;;;;;;;6.05;3.55;;;;;;;8.21;84.37;98612.94;5032365;28;20485;-62
2021/11/21 12:35:22;;;;;;;6.68;3.78;;;;;;;8.24;83.66;98617.88;5020947;28;20048;-67
2021/11/21 12:38:12;;;;;;;7.82;3.42;;;;;;;8.10;83.90;98611.25;5020588;28;20240;-63
2021/11/21 12:41:00;;;;;;;4.22;3.35;;;;;;;8.05;85.04;98610.81;5020716;28;20048;-68
2021/11/21 12:43:44;;;;;;;4.97;3.15;;;;;;;7.94;85.37;98610.09;5020689;28;20052;-67
2021/11/21 12:46:28;;;;;;;6.63;3.28;;;;;;;7.79;86.17;98607.03;5020550;28;20044;-64
2021/11/21 12:49:12;;;;;;;4.78;3.22;;;;;;;8.01;85.56;98606.03;5006904;28;20055;-66
2021/11/21 12:52:10;;;;;;;4.03;3.15;;;;;;;7.94;85.55;98599.78;5020662;28;20443;-61
2021/11/21 12:54:54;;;;;;;5.93;3.58;;;;;;;7.95;85.66;98599.66;5035689;28;20060;-61
2021/11/21 12:57:48;;;;;;;3.40;2.45;;;;;;;8.01;84.70;98609.44;5020331;28;20406;-66